sensor_id;sensor_type;location;lat;lon;timestamp;temperature;humidity
70456;DHT22;57916;51.996;5.180;2023-06-14T00:00:16;23.90;36.20
70456;DHT22;57916;51.996;5.180;2023-06-14T00:02:43;23.70;36.30
70456;DHT22;57916;51.996;5.180;2023-06-14T00:05:10;23.60;37.00
70456;DHT22;57916;51.996;5.180;2023-06-14T00:07:41;23.60;37.00
70456;DHT22;57916;51.996;5.180;2023-06-14T00:10:11;23.40;36.60
70456;DHT22;57916;51.996;5.180;2023-06-14T00:12:39;23.30;36.80
70456;DHT22;57916;51.996;5.180;2023-06-14T00:15:07;23.20;36.90
70456;DHT22;57916;51.996;5.180;2023-06-14T00:17:36;23.10;36.60
70456;DHT22;57916;51.996;5.180;2023-06-14T00:20:06;23.00;37.30
70456;DHT22;57916;51.996;5.180;2023-06-14T00:22:33;22.80;37.20
70456;DHT22;57916;51.996;5.180;2023-06-14T00:25:01;22.70;38.10
70456;DHT22;57916;51.996;5.180;2023-06-14T00:27:45;22.60;37.90
70456;DHT22;57916;51.996;5.180;2023-06-14T00:30:14;22.60;38.10
70456;DHT22;57916;51.996;5.180;2023-06-14T00:32:42;22.50;39.40
70456;DHT22;57916;51.996;5.180;2023-06-14T00:35:10;22.50;38.50
70456;DHT22;57916;51.996;5.180;2023-06-14T00:37:37;22.40;37.90
70456;DHT22;57916;51.996;5.180;2023-06-14T00:40:05;22.30;38.10
70456;DHT22;57916;51.996;5.180;2023-06-14T00:42:33;22.20;38.30
70456;DHT22;57916;51.996;5.180;2023-06-14T00:45:00;22.20;39.00
70456;DHT22;57916;51.996;5.180;2023-06-14T00:47:27;22.10;38.80
70456;DHT22;57916;51.996;5.180;2023-06-14T00:49:55;22.10;39.20
70456;DHT22;57916;51.996;5.180;2023-06-14T00:52:23;22.00;39.10
70456;DHT22;57916;51.996;5.180;2023-06-14T00:54:51;22.00;39.10
70456;DHT22;57916;51.996;5.180;2023-06-14T00:57:19;22.00;39.50
70456;DHT22;57916;51.996;5.180;2023-06-14T00:59:48;22.00;40.30
70456;DHT22;57916;51.996;5.180;2023-06-14T01:02:16;22.10;41.00
70456;DHT22;57916;51.996;5.180;2023-06-14T01:04:47;22.10;40.80
70456;DHT22;57916;51.996;5.180;2023-06-14T01:07:35;22.10;40.00
70456;DHT22;57916;51.996;5.180;2023-06-14T01:10:26;22.10;40.80
70456;DHT22;57916;51.996;5.180;2023-06-14T01:15:43;22.10;40.90
70456;DHT22;57916;51.996;5.180;2023-06-14T01:18:11;22.10;41.00
70456;DHT22;57916;51.996;5.180;2023-06-14T01:20:47;22.10;40.80
70456;DHT22;57916;51.996;5.180;2023-06-14T01:23:18;22.10;40.50
70456;DHT22;57916;51.996;5.180;2023-06-14T01:25:45;22.10;41.50
70456;DHT22;57916;51.996;5.180;2023-06-14T01:28:15;22.10;41.10
70456;DHT22;57916;51.996;5.180;2023-06-14T01:30:45;22.20;40.60
70456;DHT22;57916;51.996;5.180;2023-06-14T01:33:21;22.20;40.40
70456;DHT22;57916;51.996;5.180;2023-06-14T01:35:51;22.10;41.20
70456;DHT22;57916;51.996;5.180;2023-06-14T01:38:24;22.20;40.80
70456;DHT22;57916;51.996;5.180;2023-06-14T01:40:53;22.10;40.70
70456;DHT22;57916;51.996;5.180;2023-06-14T01:43:23;22.10;40.00
70456;DHT22;57916;51.996;5.180;2023-06-14T01:45:51;22.10;40.40
70456;DHT22;57916;51.996;5.180;2023-06-14T01:48:20;22.00;40.70
70456;DHT22;57916;51.996;5.180;2023-06-14T01:50:49;22.00;40.30
70456;DHT22;57916;51.996;5.180;2023-06-14T01:53:16;21.90;41.80
70456;DHT22;57916;51.996;5.180;2023-06-14T01:55:43;21.90;41.50
70456;DHT22;57916;51.996;5.180;2023-06-14T01:58:11;22.00;40.60
70456;DHT22;57916;51.996;5.180;2023-06-14T02:00:38;21.90;40.60
70456;DHT22;57916;51.996;5.180;2023-06-14T02:03:05;21.90;41.90
70456;DHT22;57916;51.996;5.180;2023-06-14T02:05:32;21.90;41.20
70456;DHT22;57916;51.996;5.180;2023-06-14T02:07:59;21.90;41.10
70456;DHT22;57916;51.996;5.180;2023-06-14T02:10:26;21.90;40.60
70456;DHT22;57916;51.996;5.180;2023-06-14T02:12:54;21.80;41.60
70456;DHT22;57916;51.996;5.180;2023-06-14T02:15:21;21.80;42.10
70456;DHT22;57916;51.996;5.180;2023-06-14T02:17:48;21.80;41.20
70456;DHT22;57916;51.996;5.180;2023-06-14T02:20:16;21.70;41.10
70456;DHT22;57916;51.996;5.180;2023-06-14T02:22:45;21.60;42.70
70456;DHT22;57916;51.996;5.180;2023-06-14T02:25:12;21.60;41.20
70456;DHT22;57916;51.996;5.180;2023-06-14T02:27:40;21.40;41.80
70456;DHT22;57916;51.996;5.180;2023-06-14T02:30:07;21.40;41.40
70456;DHT22;57916;51.996;5.180;2023-06-14T02:32:34;21.30;42.00
70456;DHT22;57916;51.996;5.180;2023-06-14T02:35:03;21.30;42.60
70456;DHT22;57916;51.996;5.180;2023-06-14T02:37:30;21.40;42.90
70456;DHT22;57916;51.996;5.180;2023-06-14T02:39:58;21.40;43.00
70456;DHT22;57916;51.996;5.180;2023-06-14T02:42:25;21.40;42.30
70456;DHT22;57916;51.996;5.180;2023-06-14T02:44:52;21.40;42.40
70456;DHT22;57916;51.996;5.180;2023-06-14T02:47:20;21.40;42.60
70456;DHT22;57916;51.996;5.180;2023-06-14T02:49:47;21.50;43.00
70456;DHT22;57916;51.996;5.180;2023-06-14T02:52:15;21.50;43.60
70456;DHT22;57916;51.996;5.180;2023-06-14T02:54:42;21.50;43.40
70456;DHT22;57916;51.996;5.180;2023-06-14T02:57:10;21.50;43.30
70456;DHT22;57916;51.996;5.180;2023-06-14T02:59:38;21.50;42.80
70456;DHT22;57916;51.996;5.180;2023-06-14T03:02:06;21.50;43.00
70456;DHT22;57916;51.996;5.180;2023-06-14T03:04:33;21.50;43.20
70456;DHT22;57916;51.996;5.180;2023-06-14T03:07:09;21.40;42.70
70456;DHT22;57916;51.996;5.180;2023-06-14T03:09:38;21.40;43.10
70456;DHT22;57916;51.996;5.180;2023-06-14T03:12:07;21.40;43.10
70456;DHT22;57916;51.996;5.180;2023-06-14T03:14:36;21.30;43.10
70456;DHT22;57916;51.996;5.180;2023-06-14T03:17:03;21.30;42.70
70456;DHT22;57916;51.996;5.180;2023-06-14T03:19:34;21.20;43.10
70456;DHT22;57916;51.996;5.180;2023-06-14T03:22:02;21.20;44.00
70456;DHT22;57916;51.996;5.180;2023-06-14T03:24:31;21.20;43.10
70456;DHT22;57916;51.996;5.180;2023-06-14T03:27:08;21.10;43.30
70456;DHT22;57916;51.996;5.180;2023-06-14T03:29:39;21.10;42.90
70456;DHT22;57916;51.996;5.180;2023-06-14T03:32:08;21.00;43.30
70456;DHT22;57916;51.996;5.180;2023-06-14T03:34:38;21.00;43.30
70456;DHT22;57916;51.996;5.180;2023-06-14T03:37:13;20.90;43.60
70456;DHT22;57916;51.996;5.180;2023-06-14T03:39:40;20.80;43.40
70456;DHT22;57916;51.996;5.180;2023-06-14T03:42:17;20.70;43.80
70456;DHT22;57916;51.996;5.180;2023-06-14T03:44:45;20.70;44.80
70456;DHT22;57916;51.996;5.180;2023-06-14T03:47:13;20.70;45.00
70456;DHT22;57916;51.996;5.180;2023-06-14T03:49:41;20.70;44.80
70456;DHT22;57916;51.996;5.180;2023-06-14T03:52:08;20.70;44.50
70456;DHT22;57916;51.996;5.180;2023-06-14T03:54:37;20.60;44.50
70456;DHT22;57916;51.996;5.180;2023-06-14T03:57:06;20.50;45.70
70456;DHT22;57916;51.996;5.180;2023-06-14T03:59:34;20.50;45.20
70456;DHT22;57916;51.996;5.180;2023-06-14T04:02:02;20.50;45.00
70456;DHT22;57916;51.996;5.180;2023-06-14T04:04:29;20.50;45.10
70456;DHT22;57916;51.996;5.180;2023-06-14T04:06:58;20.50;45.60
70456;DHT22;57916;51.996;5.180;2023-06-14T04:09:27;20.50;44.30
70456;DHT22;57916;51.996;5.180;2023-06-14T04:11:56;20.40;44.40
70456;DHT22;57916;51.996;5.180;2023-06-14T04:14:24;20.40;45.30
70456;DHT22;57916;51.996;5.180;2023-06-14T04:16:51;20.40;44.30
70456;DHT22;57916;51.996;5.180;2023-06-14T04:19:19;20.30;44.40
70456;DHT22;57916;51.996;5.180;2023-06-14T04:21:47;20.30;45.10
70456;DHT22;57916;51.996;5.180;2023-06-14T04:24:15;20.20;45.10
70456;DHT22;57916;51.996;5.180;2023-06-14T04:26:45;20.20;45.50
70456;DHT22;57916;51.996;5.180;2023-06-14T04:29:16;20.30;45.20
70456;DHT22;57916;51.996;5.180;2023-06-14T04:31:48;20.30;45.70
70456;DHT22;57916;51.996;5.180;2023-06-14T04:34:16;20.30;45.20
70456;DHT22;57916;51.996;5.180;2023-06-14T04:36:53;20.30;45.50
70456;DHT22;57916;51.996;5.180;2023-06-14T04:39:28;20.30;44.90
70456;DHT22;57916;51.996;5.180;2023-06-14T04:41:56;20.30;45.20
70456;DHT22;57916;51.996;5.180;2023-06-14T04:44:24;20.40;45.10
70456;DHT22;57916;51.996;5.180;2023-06-14T04:46:57;20.30;45.10
70456;DHT22;57916;51.996;5.180;2023-06-14T04:49:25;20.30;44.90
70456;DHT22;57916;51.996;5.180;2023-06-14T04:51:56;20.30;45.70
70456;DHT22;57916;51.996;5.180;2023-06-14T04:54:29;20.40;45.90
70456;DHT22;57916;51.996;5.180;2023-06-14T04:56:59;20.40;44.70
70456;DHT22;57916;51.996;5.180;2023-06-14T04:59:27;20.40;45.30
70456;DHT22;57916;51.996;5.180;2023-06-14T05:01:54;20.50;45.30
70456;DHT22;57916;51.996;5.180;2023-06-14T05:04:23;20.50;45.10
70456;DHT22;57916;51.996;5.180;2023-06-14T05:06:52;20.50;44.80
70456;DHT22;57916;51.996;5.180;2023-06-14T05:09:22;20.60;45.00
70456;DHT22;57916;51.996;5.180;2023-06-14T05:11:50;20.60;44.70
70456;DHT22;57916;51.996;5.180;2023-06-14T05:14:17;20.60;44.60
70456;DHT22;57916;51.996;5.180;2023-06-14T05:16:45;20.70;46.20
70456;DHT22;57916;51.996;5.180;2023-06-14T05:19:12;20.70;44.40
70456;DHT22;57916;51.996;5.180;2023-06-14T05:21:39;20.70;45.10
70456;DHT22;57916;51.996;5.180;2023-06-14T05:24:09;20.80;44.60
70456;DHT22;57916;51.996;5.180;2023-06-14T05:26:36;20.80;44.50
70456;DHT22;57916;51.996;5.180;2023-06-14T05:29:03;20.90;44.40
70456;DHT22;57916;51.996;5.180;2023-06-14T05:31:30;20.90;43.80
70456;DHT22;57916;51.996;5.180;2023-06-14T05:33:57;20.90;43.60
70456;DHT22;57916;51.996;5.180;2023-06-14T05:36:24;20.90;43.90
70456;DHT22;57916;51.996;5.180;2023-06-14T05:38:52;21.00;43.60
70456;DHT22;57916;51.996;5.180;2023-06-14T05:41:28;21.00;44.40
70456;DHT22;57916;51.996;5.180;2023-06-14T05:43:56;21.10;44.10
70456;DHT22;57916;51.996;5.180;2023-06-14T05:46:23;21.10;43.70
70456;DHT22;57916;51.996;5.180;2023-06-14T05:48:54;21.20;44.00
70456;DHT22;57916;51.996;5.180;2023-06-14T05:51:22;21.20;44.10
70456;DHT22;57916;51.996;5.180;2023-06-14T05:53:52;21.30;43.70
70456;DHT22;57916;51.996;5.180;2023-06-14T05:56:19;21.40;43.40
70456;DHT22;57916;51.996;5.180;2023-06-14T05:58:46;21.40;42.80
70456;DHT22;57916;51.996;5.180;2023-06-14T06:01:14;21.40;43.20
70456;DHT22;57916;51.996;5.180;2023-06-14T06:03:41;21.40;42.50
70456;DHT22;57916;51.996;5.180;2023-06-14T06:06:13;21.50;42.70
70456;DHT22;57916;51.996;5.180;2023-06-14T06:08:40;21.50;43.00
70456;DHT22;57916;51.996;5.180;2023-06-14T06:11:07;21.60;42.90
70456;DHT22;57916;51.996;5.180;2023-06-14T06:13:35;21.70;44.10
70456;DHT22;57916;51.996;5.180;2023-06-14T06:16:03;21.70;42.60
70456;DHT22;57916;51.996;5.180;2023-06-14T06:18:30;21.80;42.50
70456;DHT22;57916;51.996;5.180;2023-06-14T06:20:57;21.90;43.10
70456;DHT22;57916;51.996;5.180;2023-06-14T06:23:24;22.00;43.00
70456;DHT22;57916;51.996;5.180;2023-06-14T06:25:51;22.10;42.30
70456;DHT22;57916;51.996;5.180;2023-06-14T06:28:18;22.20;42.90
70456;DHT22;57916;51.996;5.180;2023-06-14T06:30:45;22.30;41.90
70456;DHT22;57916;51.996;5.180;2023-06-14T06:33:13;22.30;41.70
70456;DHT22;57916;51.996;5.180;2023-06-14T06:35:41;22.30;41.90
70456;DHT22;57916;51.996;5.180;2023-06-14T06:38:08;22.40;41.20
70456;DHT22;57916;51.996;5.180;2023-06-14T06:40:36;22.50;41.30
70456;DHT22;57916;51.996;5.180;2023-06-14T06:43:04;22.60;41.00
70456;DHT22;57916;51.996;5.180;2023-06-14T06:45:39;22.60;41.20
70456;DHT22;57916;51.996;5.180;2023-06-14T06:48:06;22.70;41.40
70456;DHT22;57916;51.996;5.180;2023-06-14T06:50:33;22.90;40.60
70456;DHT22;57916;51.996;5.180;2023-06-14T06:53:00;22.90;39.80
70456;DHT22;57916;51.996;5.180;2023-06-14T06:55:27;23.00;40.10
70456;DHT22;57916;51.996;5.180;2023-06-14T06:57:54;23.20;39.00
70456;DHT22;57916;51.996;5.180;2023-06-14T07:00:21;23.20;38.50
70456;DHT22;57916;51.996;5.180;2023-06-14T07:02:48;23.30;38.50
70456;DHT22;57916;51.996;5.180;2023-06-14T07:05:15;23.40;38.10
70456;DHT22;57916;51.996;5.180;2023-06-14T07:07:43;23.60;37.70
70456;DHT22;57916;51.996;5.180;2023-06-14T07:10:10;23.60;37.00
70456;DHT22;57916;51.996;5.180;2023-06-14T07:12:37;23.70;37.00
70456;DHT22;57916;51.996;5.180;2023-06-14T07:15:07;23.90;36.90
70456;DHT22;57916;51.996;5.180;2023-06-14T07:17:35;24.00;36.70
70456;DHT22;57916;51.996;5.180;2023-06-14T07:20:04;24.10;36.10
70456;DHT22;57916;51.996;5.180;2023-06-14T07:22:42;24.30;36.40
70456;DHT22;57916;51.996;5.180;2023-06-14T07:25:13;24.50;35.10
70456;DHT22;57916;51.996;5.180;2023-06-14T07:27:43;24.70;34.90
70456;DHT22;57916;51.996;5.180;2023-06-14T07:30:10;24.90;35.90
70456;DHT22;57916;51.996;5.180;2023-06-14T07:32:38;25.10;34.70
70456;DHT22;57916;51.996;5.180;2023-06-14T07:35:05;25.30;34.50
70456;DHT22;57916;51.996;5.180;2023-06-14T07:37:33;25.50;34.30
70456;DHT22;57916;51.996;5.180;2023-06-14T07:40:00;25.70;33.60
70456;DHT22;57916;51.996;5.180;2023-06-14T07:42:27;25.80;32.70
70456;DHT22;57916;51.996;5.180;2023-06-14T07:44:54;25.90;33.70
70456;DHT22;57916;51.996;5.180;2023-06-14T07:47:21;26.20;32.70
70456;DHT22;57916;51.996;5.180;2023-06-14T07:49:48;26.40;32.20
70456;DHT22;57916;51.996;5.180;2023-06-14T07:52:15;26.40;31.50
70456;DHT22;57916;51.996;5.180;2023-06-14T07:54:42;26.50;32.00
70456;DHT22;57916;51.996;5.180;2023-06-14T07:57:09;26.60;31.80
70456;DHT22;57916;51.996;5.180;2023-06-14T07:59:36;26.70;30.80
70456;DHT22;57916;51.996;5.180;2023-06-14T08:02:04;26.70;31.80
70456;DHT22;57916;51.996;5.180;2023-06-14T08:04:31;27.00;30.90
70456;DHT22;57916;51.996;5.180;2023-06-14T08:06:59;27.10;30.60
70456;DHT22;57916;51.996;5.180;2023-06-14T08:09:27;27.20;30.40
70456;DHT22;57916;51.996;5.180;2023-06-14T08:11:56;27.10;30.30
70456;DHT22;57916;51.996;5.180;2023-06-14T08:14:23;27.10;30.00
70456;DHT22;57916;51.996;5.180;2023-06-14T08:16:50;27.10;30.00
70456;DHT22;57916;51.996;5.180;2023-06-14T08:19:17;27.30;31.50
70456;DHT22;57916;51.996;5.180;2023-06-14T08:21:44;27.80;30.10
70456;DHT22;57916;51.996;5.180;2023-06-14T08:24:12;28.10;29.20
70456;DHT22;57916;51.996;5.180;2023-06-14T08:26:40;28.40;28.60
70456;DHT22;57916;51.996;5.180;2023-06-14T08:29:07;28.40;28.90
70456;DHT22;57916;51.996;5.180;2023-06-14T08:31:34;28.50;28.30
70456;DHT22;57916;51.996;5.180;2023-06-14T08:34:01;28.80;29.20
70456;DHT22;57916;51.996;5.180;2023-06-14T08:36:32;29.00;28.60
70456;DHT22;57916;51.996;5.180;2023-06-14T08:38:59;29.00;27.80
70456;DHT22;57916;51.996;5.180;2023-06-14T08:41:27;29.10;27.40
70456;DHT22;57916;51.996;5.180;2023-06-14T08:43:56;29.00;27.20
70456;DHT22;57916;51.996;5.180;2023-06-14T08:46:25;29.00;27.30
70456;DHT22;57916;51.996;5.180;2023-06-14T08:48:55;29.00;27.30
70456;DHT22;57916;51.996;5.180;2023-06-14T08:51:26;29.10;27.30
70456;DHT22;57916;51.996;5.180;2023-06-14T08:54:00;29.30;27.00
70456;DHT22;57916;51.996;5.180;2023-06-14T08:56:29;29.40;26.60
70456;DHT22;57916;51.996;5.180;2023-06-14T08:58:58;29.40;26.60
70456;DHT22;57916;51.996;5.180;2023-06-14T09:01:28;29.60;27.50
70456;DHT22;57916;51.996;5.180;2023-06-14T09:03:57;29.80;27.10
70456;DHT22;57916;51.996;5.180;2023-06-14T09:06:24;30.00;26.80
70456;DHT22;57916;51.996;5.180;2023-06-14T09:08:51;30.20;25.70
70456;DHT22;57916;51.996;5.180;2023-06-14T09:11:19;30.00;25.60
70456;DHT22;57916;51.996;5.180;2023-06-14T09:13:46;29.90;26.00
70456;DHT22;57916;51.996;5.180;2023-06-14T09:16:13;30.00;25.30
70456;DHT22;57916;51.996;5.180;2023-06-14T09:18:42;30.00;26.50
70456;DHT22;57916;51.996;5.180;2023-06-14T09:21:15;30.10;25.30
70456;DHT22;57916;51.996;5.180;2023-06-14T09:23:44;30.10;24.60
70456;DHT22;57916;51.996;5.180;2023-06-14T09:26:18;30.10;24.90
70456;DHT22;57916;51.996;5.180;2023-06-14T09:28:50;30.20;24.70
70456;DHT22;57916;51.996;5.180;2023-06-14T09:31:19;30.20;24.80
70456;DHT22;57916;51.996;5.180;2023-06-14T09:33:48;30.10;24.90
70456;DHT22;57916;51.996;5.180;2023-06-14T09:36:17;30.00;24.40
70456;DHT22;57916;51.996;5.180;2023-06-14T09:39:02;30.10;24.20
70456;DHT22;57916;51.996;5.180;2023-06-14T09:41:37;30.10;24.40
70456;DHT22;57916;51.996;5.180;2023-06-14T09:44:06;30.20;24.50
70456;DHT22;57916;51.996;5.180;2023-06-14T09:46:38;30.30;24.40
70456;DHT22;57916;51.996;5.180;2023-06-14T09:49:07;30.40;24.70
70456;DHT22;57916;51.996;5.180;2023-06-14T09:51:40;30.50;24.60
70456;DHT22;57916;51.996;5.180;2023-06-14T09:54:14;30.50;24.30
70456;DHT22;57916;51.996;5.180;2023-06-14T09:56:45;30.40;24.30
70456;DHT22;57916;51.996;5.180;2023-06-14T09:59:13;30.60;24.00
70456;DHT22;57916;51.996;5.180;2023-06-14T10:01:44;30.40;23.90
70456;DHT22;57916;51.996;5.180;2023-06-14T10:04:13;30.10;24.50
70456;DHT22;57916;51.996;5.180;2023-06-14T10:06:45;30.00;24.20
70456;DHT22;57916;51.996;5.180;2023-06-14T10:09:12;30.00;24.70
70456;DHT22;57916;51.996;5.180;2023-06-14T10:11:41;30.20;24.80
70456;DHT22;57916;51.996;5.180;2023-06-14T10:14:12;30.40;24.20
70456;DHT22;57916;51.996;5.180;2023-06-14T10:17:07;30.70;24.40
70456;DHT22;57916;51.996;5.180;2023-06-14T10:20:10;30.60;23.40
70456;DHT22;57916;51.996;5.180;2023-06-14T10:22:54;30.40;23.20
70456;DHT22;57916;51.996;5.180;2023-06-14T10:25:31;30.40;23.60
70456;DHT22;57916;51.996;5.180;2023-06-14T10:30:39;30.50;23.30
70456;DHT22;57916;51.996;5.180;2023-06-14T10:33:07;30.50;22.90
70456;DHT22;57916;51.996;5.180;2023-06-14T10:35:34;30.50;23.70
70456;DHT22;57916;51.996;5.180;2023-06-14T10:38:09;30.50;22.90
70456;DHT22;57916;51.996;5.180;2023-06-14T10:40:36;30.50;23.10
70456;DHT22;57916;51.996;5.180;2023-06-14T10:43:23;30.60;24.00
70456;DHT22;57916;51.996;5.180;2023-06-14T10:46:14;30.90;23.20
70456;DHT22;57916;51.996;5.180;2023-06-14T10:48:43;31.00;24.10
70456;DHT22;57916;51.996;5.180;2023-06-14T10:51:18;31.10;23.40
70456;DHT22;57916;51.996;5.180;2023-06-14T10:53:48;31.10;23.40
70456;DHT22;57916;51.996;5.180;2023-06-14T10:56:30;31.00;23.00
70456;DHT22;57916;51.996;5.180;2023-06-14T10:58:57;31.20;22.70
70456;DHT22;57916;51.996;5.180;2023-06-14T11:01:38;31.40;22.60
70456;DHT22;57916;51.996;5.180;2023-06-14T11:04:12;31.30;23.00
70456;DHT22;57916;51.996;5.180;2023-06-14T11:06:49;31.00;23.20
70456;DHT22;57916;51.996;5.180;2023-06-14T11:12:36;31.10;23.00
70456;DHT22;57916;51.996;5.180;2023-06-14T11:15:05;31.10;23.70
70456;DHT22;57916;51.996;5.180;2023-06-14T11:17:33;31.20;24.50
70456;DHT22;57916;51.996;5.180;2023-06-14T11:20:13;31.30;23.80
70456;DHT22;57916;51.996;5.180;2023-06-14T11:22:48;31.30;23.30
70456;DHT22;57916;51.996;5.180;2023-06-14T11:25:15;31.40;23.30
70456;DHT22;57916;51.996;5.180;2023-06-14T11:27:43;31.80;23.60
70456;DHT22;57916;51.996;5.180;2023-06-14T11:30:11;31.80;23.00
70456;DHT22;57916;51.996;5.180;2023-06-14T11:32:38;31.60;23.00
70456;DHT22;57916;51.996;5.180;2023-06-14T11:35:06;31.50;23.30
70456;DHT22;57916;51.996;5.180;2023-06-14T11:37:33;31.60;22.70
70456;DHT22;57916;51.996;5.180;2023-06-14T11:40:01;31.50;23.80
70456;DHT22;57916;51.996;5.180;2023-06-14T11:42:30;31.60;23.10
70456;DHT22;57916;51.996;5.180;2023-06-14T11:44:57;31.50;22.70
70456;DHT22;57916;51.996;5.180;2023-06-14T11:47:35;31.20;22.60
70456;DHT22;57916;51.996;5.180;2023-06-14T11:50:05;31.10;23.50
70456;DHT22;57916;51.996;5.180;2023-06-14T11:52:33;31.10;22.50
70456;DHT22;57916;51.996;5.180;2023-06-14T11:55:01;31.10;22.50
70456;DHT22;57916;51.996;5.180;2023-06-14T11:57:34;30.80;23.30
70456;DHT22;57916;51.996;5.180;2023-06-14T12:00:09;30.80;24.00
70456;DHT22;57916;51.996;5.180;2023-06-14T12:02:39;30.90;23.70
70456;DHT22;57916;51.996;5.180;2023-06-14T12:05:08;30.90;23.10
70456;DHT22;57916;51.996;5.180;2023-06-14T12:07:37;30.80;23.20
70456;DHT22;57916;51.996;5.180;2023-06-14T12:10:09;30.70;24.30
70456;DHT22;57916;51.996;5.180;2023-06-14T12:12:39;30.80;24.70
70456;DHT22;57916;51.996;5.180;2023-06-14T12:15:08;30.80;24.80
70456;DHT22;57916;51.996;5.180;2023-06-14T12:17:36;30.70;23.80
70456;DHT22;57916;51.996;5.180;2023-06-14T12:20:10;30.60;23.60
70456;DHT22;57916;51.996;5.180;2023-06-14T12:22:38;30.30;23.50
70456;DHT22;57916;51.996;5.180;2023-06-14T12:25:05;30.10;23.70
70456;DHT22;57916;51.996;5.180;2023-06-14T12:27:32;30.10;24.10
70456;DHT22;57916;51.996;5.180;2023-06-14T12:30:03;30.10;24.30
70456;DHT22;57916;51.996;5.180;2023-06-14T12:32:31;30.10;23.40
70456;DHT22;57916;51.996;5.180;2023-06-14T12:34:58;30.10;23.70
70456;DHT22;57916;51.996;5.180;2023-06-14T12:37:25;30.00;23.70
70456;DHT22;57916;51.996;5.180;2023-06-14T12:39:52;30.00;24.00
70456;DHT22;57916;51.996;5.180;2023-06-14T12:42:19;30.00;24.30
70456;DHT22;57916;51.996;5.180;2023-06-14T12:44:46;29.90;25.30
70456;DHT22;57916;51.996;5.180;2023-06-14T12:47:13;29.90;24.70
70456;DHT22;57916;51.996;5.180;2023-06-14T12:49:40;29.80;24.90
70456;DHT22;57916;51.996;5.180;2023-06-14T12:52:08;29.80;24.80
70456;DHT22;57916;51.996;5.180;2023-06-14T12:54:35;29.70;24.20
70456;DHT22;57916;51.996;5.180;2023-06-14T12:57:07;29.60;23.70
70456;DHT22;57916;51.996;5.180;2023-06-14T12:59:34;29.50;23.60
70456;DHT22;57916;51.996;5.180;2023-06-14T13:02:15;29.50;23.60
70456;DHT22;57916;51.996;5.180;2023-06-14T13:04:43;29.40;24.20
70456;DHT22;57916;51.996;5.180;2023-06-14T13:07:10;29.40;25.20
70456;DHT22;57916;51.996;5.180;2023-06-14T13:09:38;29.50;24.60
70456;DHT22;57916;51.996;5.180;2023-06-14T13:12:05;29.40;23.70
70456;DHT22;57916;51.996;5.180;2023-06-14T13:14:32;29.30;23.60
70456;DHT22;57916;51.996;5.180;2023-06-14T13:16:59;29.10;23.70
70456;DHT22;57916;51.996;5.180;2023-06-14T13:19:26;29.00;23.30
70456;DHT22;57916;51.996;5.180;2023-06-14T13:21:53;28.90;24.20
70456;DHT22;57916;51.996;5.180;2023-06-14T13:24:20;28.90;25.10
70456;DHT22;57916;51.996;5.180;2023-06-14T13:26:47;29.10;25.30
70456;DHT22;57916;51.996;5.180;2023-06-14T13:29:14;29.10;24.90
70456;DHT22;57916;51.996;5.180;2023-06-14T13:31:41;29.10;24.70
70456;DHT22;57916;51.996;5.180;2023-06-14T13:34:08;29.00;24.40
70456;DHT22;57916;51.996;5.180;2023-06-14T13:36:35;28.90;24.00
70456;DHT22;57916;51.996;5.180;2023-06-14T13:39:02;28.90;24.20
70456;DHT22;57916;51.996;5.180;2023-06-14T13:41:29;29.00;24.70
70456;DHT22;57916;51.996;5.180;2023-06-14T13:43:58;29.00;24.50
70456;DHT22;57916;51.996;5.180;2023-06-14T13:46:26;29.10;24.60
70456;DHT22;57916;51.996;5.180;2023-06-14T13:48:53;29.10;25.20
70456;DHT22;57916;51.996;5.180;2023-06-14T13:51:21;29.00;25.30
70456;DHT22;57916;51.996;5.180;2023-06-14T13:53:48;28.90;25.30
70456;DHT22;57916;51.996;5.180;2023-06-14T13:56:16;29.00;25.30
70456;DHT22;57916;51.996;5.180;2023-06-14T13:58:43;29.00;25.00
70456;DHT22;57916;51.996;5.180;2023-06-14T14:01:10;29.00;25.60
70456;DHT22;57916;51.996;5.180;2023-06-14T14:03:38;29.10;25.10
70456;DHT22;57916;51.996;5.180;2023-06-14T14:06:05;28.90;24.90
70456;DHT22;57916;51.996;5.180;2023-06-14T14:08:34;28.90;25.60
70456;DHT22;57916;51.996;5.180;2023-06-14T14:11:02;28.90;26.10
70456;DHT22;57916;51.996;5.180;2023-06-14T14:13:29;28.90;25.90
70456;DHT22;57916;51.996;5.180;2023-06-14T14:15:56;28.90;26.00
70456;DHT22;57916;51.996;5.180;2023-06-14T14:18:23;28.80;26.00
70456;DHT22;57916;51.996;5.180;2023-06-14T14:20:50;28.80;25.50
70456;DHT22;57916;51.996;5.180;2023-06-14T14:23:17;29.00;25.70
70456;DHT22;57916;51.996;5.180;2023-06-14T14:25:44;29.10;25.70
70456;DHT22;57916;51.996;5.180;2023-06-14T14:28:11;29.10;26.70
70456;DHT22;57916;51.996;5.180;2023-06-14T14:30:38;29.30;25.60
70456;DHT22;57916;51.996;5.180;2023-06-14T14:33:06;29.40;25.90
70456;DHT22;57916;51.996;5.180;2023-06-14T14:35:33;29.40;26.10
70456;DHT22;57916;51.996;5.180;2023-06-14T14:38:00;29.50;25.20
70456;DHT22;57916;51.996;5.180;2023-06-14T14:40:30;29.50;24.90
70456;DHT22;57916;51.996;5.180;2023-06-14T14:42:56;29.50;25.40
70456;DHT22;57916;51.996;5.180;2023-06-14T14:45:23;29.50;26.00
70456;DHT22;57916;51.996;5.180;2023-06-14T14:47:50;29.60;25.60
70456;DHT22;57916;51.996;5.180;2023-06-14T14:50:21;29.60;24.90
70456;DHT22;57916;51.996;5.180;2023-06-14T14:52:48;29.50;26.10
70456;DHT22;57916;51.996;5.180;2023-06-14T14:55:15;29.50;25.80
70456;DHT22;57916;51.996;5.180;2023-06-14T14:57:42;29.40;26.30
70456;DHT22;57916;51.996;5.180;2023-06-14T15:00:10;29.20;26.50
70456;DHT22;57916;51.996;5.180;2023-06-14T15:02:37;29.10;25.80
70456;DHT22;57916;51.996;5.180;2023-06-14T15:05:04;29.10;26.20
70456;DHT22;57916;51.996;5.180;2023-06-14T15:07:31;29.00;27.20
70456;DHT22;57916;51.996;5.180;2023-06-14T15:10:00;29.00;26.90
70456;DHT22;57916;51.996;5.180;2023-06-14T15:12:27;29.00;26.30
70456;DHT22;57916;51.996;5.180;2023-06-14T15:14:56;29.00;25.50
70456;DHT22;57916;51.996;5.180;2023-06-14T15:17:23;29.00;25.40
70456;DHT22;57916;51.996;5.180;2023-06-14T15:19:52;28.90;25.00
70456;DHT22;57916;51.996;5.180;2023-06-14T15:22:19;28.80;25.70
70456;DHT22;57916;51.996;5.180;2023-06-14T15:24:46;28.70;25.80
70456;DHT22;57916;51.996;5.180;2023-06-14T15:27:16;28.70;25.80
70456;DHT22;57916;51.996;5.180;2023-06-14T15:29:43;28.70;25.80
70456;DHT22;57916;51.996;5.180;2023-06-14T15:32:12;28.60;25.60
70456;DHT22;57916;51.996;5.180;2023-06-14T15:34:39;28.60;25.60
70456;DHT22;57916;51.996;5.180;2023-06-14T15:37:06;28.60;25.40
70456;DHT22;57916;51.996;5.180;2023-06-14T15:39:34;28.70;25.70
70456;DHT22;57916;51.996;5.180;2023-06-14T15:42:02;28.70;25.60
70456;DHT22;57916;51.996;5.180;2023-06-14T15:44:30;28.70;25.90
70456;DHT22;57916;51.996;5.180;2023-06-14T15:46:57;28.70;25.60
70456;DHT22;57916;51.996;5.180;2023-06-14T15:49:24;28.60;25.70